Time;durP1;ratioP1;P1;durP2;ratioP2;P2;SDS_P1;SDS_P2;PMS_P1;PMS_P2;Temp;Humidity;BMP_temperature;BMP_pressure;BME280_temperature;BME280_humidity;BME280_pressure;Samples;Min_cycle;Max_cycle;Signal;HPM_P1;HPM_P2
2021/12/01 00:01:49;;;;;;;45.05;19.98;;;9.20;99.90;;;;;;5155463;27;20130;-79
2021/12/01 00:04:14;;;;;;;46.22;19.77;;;9.20;99.90;;;;;;5154962;27;20130;-80
2021/12/01 00:06:40;;;;;;;47.05;22.45;;;9.20;99.90;;;;;;5155534;27;20178;-78
2021/12/01 00:09:06;;;;;;;51.83;23.17;;;9.20;99.90;;;;;;5154518;27;20046;-79
2021/12/01 00:11:32;;;;;;;47.92;23.92;;;9.20;99.90;;;;;;5155186;27;20035;-79
2021/12/01 00:13:57;;;;;;;48.22;25.92;;;9.20;99.90;;;;;;5155492;27;20038;-79
2021/12/01 00:16:24;;;;;;;48.17;22.88;;;9.20;99.90;;;;;;5154692;27;20093;-79
2021/12/01 00:18:49;;;;;;;50.03;23.65;;;9.30;99.90;;;;;;5154403;27;20046;-79
2021/12/01 00:21:15;;;;;;;54.17;26.08;;;9.20;99.90;;;;;;5154542;27;20467;-79
2021/12/01 00:23:41;;;;;;;52.08;26.33;;;9.30;99.90;;;;;;5155255;27;20047;-79
2021/12/01 00:26:07;;;;;;;47.40;25.75;;;9.30;99.90;;;;;;5135612;27;20082;-79
2021/12/01 00:28:33;;;;;;;52.28;25.15;;;9.20;99.90;;;;;;5154439;27;20043;-78
2021/12/01 00:31:00;;;;;;;54.67;27.25;;;9.20;99.90;;;;;;5149336;27;20049;-79
2021/12/01 00:33:26;;;;;;;52.08;26.42;;;9.30;99.90;;;;;;5154100;27;20483;-79
2021/12/01 00:35:55;;;;;;;52.63;26.20;;;9.20;99.90;;;;;;5153585;27;20049;-78
2021/12/01 00:38:22;;;;;;;51.67;24.90;;;9.30;99.90;;;;;;5154030;27;20062;-79
2021/12/01 00:40:48;;;;;;;54.70;27.65;;;9.30;99.90;;;;;;5135988;27;20053;-79
2021/12/01 00:43:17;;;;;;;55.42;28.10;;;9.30;99.90;;;;;;5154081;27;20449;-79
2021/12/01 00:46:36;;;;;;;53.63;28.33;;;9.30;99.90;;;;;;5154471;27;20463;-79
2021/12/01 00:48:37;;;;;;;54.35;26.25;;;9.30;99.90;;;;;;5127882;27;20377;-78
2021/12/01 00:51:03;;;;;;;53.95;27.27;;;9.30;99.90;;;;;;5149137;27;20034;-79
2021/12/01 00:53:29;;;;;;;56.90;28.10;;;9.30;99.90;;;;;;5154195;27;20046;-79
2021/12/01 00:55:54;;;;;;;52.85;27.63;;;9.30;99.90;;;;;;5154616;27;20042;-79
2021/12/01 00:58:20;;;;;;;51.10;26.38;;;9.30;99.90;;;;;;5154102;27;20088;-78
2021/12/01 01:00:49;;;;;;;48.20;26.17;;;9.30;99.90;;;;;;5153263;27;20047;-78
2021/12/01 01:03:16;;;;;;;49.15;25.33;;;9.30;99.90;;;;;;5133382;27;20398;-79
2021/12/01 01:05:42;;;;;;;47.50;24.48;;;9.30;99.90;;;;;;5154513;27;20041;-78
2021/12/01 01:08:08;;;;;;;45.28;24.42;;;9.30;99.90;;;;;;5153785;27;20043;-75
2021/12/01 01:18:39;;;;;;;50.38;24.40;;;9.40;99.90;;;;;;5133912;27;20043;-78
2021/12/01 01:21:06;;;;;;;47.85;24.90;;;9.40;99.90;;;;;;5134593;27;20487;-78
2021/12/01 01:23:34;;;;;;;46.55;24.30;;;9.40;99.90;;;;;;5134772;27;20047;-78
2021/12/01 01:26:01;;;;;;;45.88;22.88;;;9.40;99.90;;;;;;5154133;27;20051;-78
2021/12/01 01:28:26;;;;;;;42.15;22.80;;;9.40;99.90;;;;;;5133846;27;20054;-79
2021/12/01 01:30:53;;;;;;;45.80;22.08;;;9.40;99.90;;;;;;5154700;27;20043;-78
2021/12/01 01:33:20;;;;;;;41.75;22.05;;;9.40;99.90;;;;;;5145681;27;20047;-78
2021/12/01 01:35:46;;;;;;;41.13;21.42;;;9.40;99.90;;;;;;5119865;27;20047;-79
2021/12/01 01:38:12;;;;;;;41.05;20.38;;;9.50;99.90;;;;;;5157109;27;20057;-74
2021/12/01 01:40:38;;;;;;;41.22;19.98;;;9.50;99.90;;;;;;5161109;27;20069;-79
2021/12/01 01:43:05;;;;;;;39.75;20.58;;;9.50;99.90;;;;;;5160812;27;20081;-78
2021/12/01 01:45:31;;;;;;;43.13;21.08;;;9.50;99.90;;;;;;5159844;27;20046;-78
2021/12/01 01:48:01;;;;;;;40.72;20.60;;;9.50;99.90;;;;;;5160054;27;20110;-79
2021/12/01 01:50:37;;;;;;;41.60;20.17;;;9.50;99.90;;;;;;5159911;27;20041;-79
2021/12/01 01:53:05;;;;;;;39.75;19.50;;;9.50;99.90;;;;;;5160780;27;20315;-78
2021/12/01 01:55:31;;;;;;;37.90;20.00;;;9.50;99.90;;;;;;5159878;27;20461;-79
2021/12/01 01:57:57;;;;;;;36.95;18.83;;;9.50;99.90;;;;;;5159837;27;20042;-79
2021/12/01 02:00:22;;;;;;;38.05;18.48;;;9.50;99.90;;;;;;5141723;27;20123;-78
2021/12/01 02:02:49;;;;;;;33.75;18.02;;;9.60;99.90;;;;;;5160407;27;20062;-79
2021/12/01 02:05:15;;;;;;;32.20;17.70;;;9.60;99.90;;;;;;5160115;27;20498;-75
2021/12/01 02:07:42;;;;;;;29.60;17.15;;;9.60;99.90;;;;;;5142189;27;20064;-79
2021/12/01 02:10:09;;;;;;;30.75;17.30;;;9.60;99.90;;;;;;5140141;27;20473;-78
2021/12/01 02:12:37;;;;;;;29.85;16.00;;;9.60;99.90;;;;;;5160233;27;20130;-78
2021/12/01 02:15:03;;;;;;;27.35;14.95;;;9.60;99.90;;;;;;5160371;27;20039;-77
2021/12/01 02:17:29;;;;;;;27.77;13.77;;;9.60;99.90;;;;;;5158717;27;20562;-79
2021/12/01 02:19:55;;;;;;;24.98;13.90;;;9.60;99.90;;;;;;5141793;27;20054;-78
2021/12/01 02:22:21;;;;;;;24.38;12.20;;;9.60;99.90;;;;;;5159836;27;20042;-79
2021/12/01 02:24:47;;;;;;;23.25;12.23;;;9.70;99.90;;;;;;5160677;27;20379;-78
2021/12/01 02:27:14;;;;;;;20.35;11.55;;;9.70;99.90;;;;;;5160330;27;20053;-78
2021/12/01 02:29:39;;;;;;;21.98;11.52;;;9.70;99.90;;;;;;5159494;27;20395;-78
2021/12/01 02:32:07;;;;;;;16.25;9.02;;;9.70;99.90;;;;;;5141669;27;20046;-78
2021/12/01 02:34:35;;;;;;;18.13;9.57;;;9.70;99.90;;;;;;5159547;27;20386;-80
2021/12/01 02:37:01;;;;;;;14.18;7.78;;;9.70;99.90;;;;;;5159817;27;20122;-77
2021/12/01 02:39:28;;;;;;;13.25;7.78;;;9.70;99.90;;;;;;5159891;27;20505;-79
2021/12/01 02:41:57;;;;;;;12.32;6.90;;;9.70;99.90;;;;;;5160159;27;20455;-78
2021/12/01 02:44:23;;;;;;;13.05;7.25;;;9.70;99.90;;;;;;5159582;27;20479;-79
2021/12/01 02:46:49;;;;;;;12.68;7.20;;;9.70;99.90;;;;;;5157374;27;20074;-79
2021/12/01 02:49:23;;;;;;;10.68;6.10;;;9.70;99.90;;;;;;5156890;27;20097;-79
2021/12/01 02:51:51;;;;;;;11.88;6.57;;;9.70;99.90;;;;;;5156500;27;20051;-78
2021/12/01 02:54:17;;;;;;;11.75;6.03;;;9.70;99.90;;;;;;5156827;27;20043;-79
2021/12/01 02:56:50;;;;;;;9.45;6.20;;;9.80;99.90;;;;;;5156112;27;20046;-78
2021/12/01 02:59:16;;;;;;;10.63;6.82;;;9.80;99.90;;;;;;5156361;27;20443;-79
2021/12/01 03:01:43;;;;;;;10.77;7.07;;;9.80;99.90;;;;;;5155558;27;20789;-78
2021/12/01 03:04:09;;;;;;;10.57;7.10;;;9.80;99.90;;;;;;5156110;27;20045;-78
2021/12/01 03:06:36;;;;;;;8.68;6.30;;;9.80;99.90;;;;;;5156267;27;20062;-78
2021/12/01 03:09:05;;;;;;;11.63;5.85;;;9.80;99.90;;;;;;5155945;27;20070;-77
2021/12/01 03:11:30;;;;;;;10.23;6.05;;;9.80;99.90;;;;;;5156190;27;20102;-79
2021/12/01 03:13:56;;;;;;;10.85;6.15;;;9.80;99.90;;;;;;5138776;27;20047;-79
2021/12/01 03:16:23;;;;;;;10.00;6.40;;;9.80;99.90;;;;;;5117445;27;20051;-76
2021/12/01 03:18:48;;;;;;;10.80;6.00;;;9.90;99.90;;;;;;5152879;27;20081;-78
2021/12/01 03:21:15;;;;;;;10.65;6.95;;;9.80;99.90;;;;;;5137693;27;20074;-79
2021/12/01 03:23:41;;;;;;;11.20;6.60;;;9.80;99.90;;;;;;5151863;27;20046;-79
2021/12/01 03:26:07;;;;;;;10.32;6.78;;;9.80;99.90;;;;;;5156290;27;20043;-78
2021/12/01 03:28:33;;;;;;;10.35;7.53;;;9.90;99.90;;;;;;5155409;27;20047;-79
2021/12/01 03:31:00;;;;;;;10.65;7.65;;;9.90;99.90;;;;;;5156349;27;20043;-79
2021/12/01 03:33:26;;;;;;;9.68;7.45;;;9.90;99.90;;;;;;5154902;27;20061;-75
2021/12/01 03:35:53;;;;;;;8.45;6.55;;;9.90;99.90;;;;;;5156646;27;20038;-79
2021/12/01 03:38:22;;;;;;;8.40;4.90;;;9.80;99.90;;;;;;5155313;27;20074;-78
2021/12/01 03:40:48;;;;;;;6.53;5.00;;;9.80;99.90;;;;;;5155629;27;20152;-80
2021/12/01 03:43:14;;;;;;;7.00;5.05;;;9.80;99.90;;;;;;5155895;27;20125;-79
2021/12/01 03:45:40;;;;;;;5.88;4.30;;;9.90;99.90;;;;;;5136513;27;20130;-79
2021/12/01 03:48:06;;;;;;;6.18;5.28;;;9.90;99.90;;;;;;5155637;27;20077;-77
2021/12/01 03:50:32;;;;;;;5.13;4.28;;;9.90;99.90;;;;;;5155455;27;20074;-79
2021/12/01 03:52:58;;;;;;;5.30;4.13;;;9.80;99.90;;;;;;5154890;27;20050;-78
2021/12/01 03:55:24;;;;;;;5.68;4.40;;;9.90;99.90;;;;;;5155594;27;20098;-78
2021/12/01 03:57:50;;;;;;;4.40;3.70;;;9.80;99.90;;;;;;5154567;27;20077;-79
2021/12/01 04:00:18;;;;;;;5.72;3.75;;;9.80;99.90;;;;;;5156225;27;20042;-78
2021/12/01 04:02:44;;;;;;;4.15;3.35;;;9.80;99.90;;;;;;5135900;27;20049;-77
2021/12/01 04:05:11;;;;;;;4.60;3.90;;;9.80;99.90;;;;;;5154753;27;20062;-78
2021/12/01 04:07:37;;;;;;;4.10;3.45;;;9.80;99.90;;;;;;5154400;27;20162;-78
2021/12/01 04:10:07;;;;;;;4.88;3.92;;;9.80;99.90;;;;;;5155496;27;20046;-79
2021/12/01 04:12:33;;;;;;;4.38;3.70;;;9.80;99.90;;;;;;5154417;27;20512;-77
2021/12/01 04:14:59;;;;;;;4.75;3.63;;;9.80;99.90;;;;;;5155782;27;20129;-79
2021/12/01 04:17:25;;;;;;;4.93;3.90;;;9.80;99.90;;;;;;5136136;27;20129;-77
2021/12/01 04:19:52;;;;;;;4.55;4.00;;;9.70;99.90;;;;;;5154740;27;20038;-78
2021/12/01 04:22:18;;;;;;;4.60;3.70;;;9.70;99.90;;;;;;5154934;27;20486;-78
2021/12/01 04:24:43;;;;;;;4.63;3.50;;;9.70;99.90;;;;;;5154404;27;20110;-78
2021/12/01 04:27:10;;;;;;;4.40;3.08;;;9.70;99.90;;;;;;5155088;27;20045;-78
2021/12/01 04:29:37;;;;;;;2.65;2.30;;;9.70;99.90;;;;;;5135757;27;20078;-78
2021/12/01 04:32:03;;;;;;;3.13;2.72;;;9.70;99.90;;;;;;5154127;27;20039;-79
2021/12/01 04:34:28;;;;;;;3.08;2.72;;;9.60;99.90;;;;;;5154409;27;20035;-78
2021/12/01 04:36:54;;;;;;;3.17;2.30;;;9.60;99.90;;;;;;5135952;27;20111;-79
2021/12/01 04:39:20;;;;;;;2.17;1.95;;;9.60;99.90;;;;;;5154633;27;20123;-78
2021/12/01 04:41:55;;;;;;;2.40;2.20;;;9.60;99.90;;;;;;5154442;27;20061;-78
2021/12/01 04:44:22;;;;;;;2.30;1.80;;;9.60;99.90;;;;;;5136438;27;20051;-77
2021/12/01 04:46:52;;;;;;;2.47;2.15;;;9.60;99.90;;;;;;5153622;27;20114;-77
2021/12/01 04:49:20;;;;;;;2.80;2.10;;;9.50;99.90;;;;;;5154573;27;20046;-79
2021/12/01 04:51:48;;;;;;;3.08;1.90;;;9.50;99.90;;;;;;5154013;27;20050;-78
2021/12/01 04:54:14;;;;;;;2.60;2.28;;;9.50;99.90;;;;;;5154501;27;20049;-77
2021/12/01 04:56:42;;;;;;;2.88;2.50;;;9.50;99.90;;;;;;5153926;27;20053;-77
2021/12/01 04:59:08;;;;;;;2.90;2.42;;;9.50;99.90;;;;;;5154669;27;20047;-78
2021/12/01 05:01:34;;;;;;;4.63;2.72;;;9.40;99.90;;;;;;5135969;27;20498;-75
2021/12/01 05:04:00;;;;;;;4.13;2.80;;;9.40;99.90;;;;;;5143878;27;20047;-79
2021/12/01 05:06:26;;;;;;;3.42;2.72;;;9.40;99.90;;;;;;5124264;27;20546;-79
2021/12/01 05:08:52;;;;;;;3.13;2.53;;;9.40;99.90;;;;;;5112499;27;20122;-78
2021/12/01 05:11:18;;;;;;;2.92;2.63;;;9.40;99.90;;;;;;5150942;27;20411;-78
2021/12/01 05:13:43;;;;;;;4.18;3.17;;;9.30;99.90;;;;;;5153970;27;20125;-76
2021/12/01 05:16:09;;;;;;;3.58;2.80;;;9.30;99.90;;;;;;5154618;27;20141;-78
2021/12/01 05:18:35;;;;;;;3.13;2.80;;;9.30;99.90;;;;;;5153679;27;20042;-78
2021/12/01 05:21:01;;;;;;;3.72;2.80;;;9.20;99.90;;;;;;5153376;27;20464;-77
2021/12/01 05:23:26;;;;;;;3.60;2.90;;;9.20;99.90;;;;;;5119124;27;20050;-77
2021/12/01 05:25:52;;;;;;;3.53;2.97;;;9.20;99.90;;;;;;5153733;27;20047;-77
2021/12/01 05:28:18;;;;;;;4.57;2.75;;;9.20;99.90;;;;;;5154424;27;20459;-78
2021/12/01 05:30:45;;;;;;;3.78;2.72;;;9.10;99.90;;;;;;5152835;27;20042;-79
2021/12/01 05:33:14;;;;;;;3.22;2.70;;;9.10;99.90;;;;;;5137832;27;20047;-78
2021/12/01 05:35:42;;;;;;;4.82;2.75;;;9.10;99.90;;;;;;5133047;28;20403;-74
2021/12/01 05:38:09;;;;;;;3.78;2.97;;;9.10;99.90;;;;;;5142223;27;20057;-77
2021/12/01 05:40:35;;;;;;;3.08;2.78;;;9.10;99.90;;;;;;5154481;27;20042;-77
2021/12/01 05:43:01;;;;;;;4.90;3.28;;;9.10;99.90;;;;;;5153642;27;20081;-80
2021/12/01 05:45:27;;;;;;;3.75;3.17;;;9.00;99.90;;;;;;5154254;27;20391;-78
2021/12/01 05:47:53;;;;;;;3.50;2.70;;;9.00;99.90;;;;;;5152856;27;20125;-77
2021/12/01 05:50:19;;;;;;;4.43;2.80;;;9.00;99.90;;;;;;5153598;27;20049;-78
2021/12/01 05:52:44;;;;;;;3.33;2.92;;;9.00;99.90;;;;;;5153143;27;20046;-78
2021/12/01 05:55:10;;;;;;;4.47;3.13;;;9.00;99.90;;;;;;5154019;27;20054;-78
2021/12/01 05:57:36;;;;;;;3.13;2.67;;;8.90;99.90;;;;;;5136026;27;20039;-80
2021/12/01 06:00:10;;;;;;;3.17;2.83;;;9.00;99.90;;;;;;5121774;28;20270;-78
2021/12/01 06:02:36;;;;;;;3.45;2.75;;;8.90;99.90;;;;;;5133299;27;20055;-78
2021/12/01 06:05:03;;;;;;;3.67;3.03;;;8.90;99.90;;;;;;5132054;27;20057;-78
2021/12/01 06:07:28;;;;;;;3.38;3.00;;;8.90;99.90;;;;;;5153188;27;20042;-75
2021/12/01 06:09:54;;;;;;;3.72;3.20;;;8.90;99.90;;;;;;5152428;27;20045;-80
2021/12/01 06:12:20;;;;;;;3.97;3.38;;;8.90;99.90;;;;;;5135672;27;20055;-77
2021/12/01 06:14:46;;;;;;;4.85;3.40;;;8.90;99.90;;;;;;5153371;27;20042;-77
2021/12/01 06:17:13;;;;;;;4.50;3.47;;;8.80;99.90;;;;;;5153791;27;20042;-78
2021/12/01 06:19:40;;;;;;;3.95;3.42;;;8.80;99.90;;;;;;5152983;27;20117;-77
2021/12/01 06:22:07;;;;;;;3.60;3.30;;;8.90;99.90;;;;;;5137408;27;20130;-77
2021/12/01 06:24:33;;;;;;;4.55;3.58;;;8.80;99.90;;;;;;5136844;27;20071;-79
2021/12/01 06:26:59;;;;;;;5.07;4.10;;;8.80;99.90;;;;;;5136301;27;20046;-77
2021/12/01 06:29:25;;;;;;;3.90;3.50;;;8.80;99.90;;;;;;5136722;27;20040;-77
2021/12/01 06:31:50;;;;;;;4.13;3.72;;;8.80;99.90;;;;;;5151625;27;20135;-78
2021/12/01 06:34:16;;;;;;;4.05;3.65;;;8.80;99.90;;;;;;5138065;27;20046;-79
2021/12/01 06:36:43;;;;;;;3.95;3.55;;;8.80;99.90;;;;;;5157373;27;20129;-78
2021/12/01 06:39:10;;;;;;;3.90;3.50;;;8.80;99.90;;;;;;5156716;27;20131;-78
2021/12/01 06:41:36;;;;;;;3.55;3.25;;;8.80;99.90;;;;;;5156589;27;20525;-78
2021/12/01 06:44:02;;;;;;;4.47;3.60;;;8.80;99.90;;;;;;5156802;27;20047;-78
2021/12/01 06:46:28;;;;;;;4.82;3.70;;;8.70;99.90;;;;;;5157140;27;20043;-77
2021/12/01 06:48:56;;;;;;;3.58;3.28;;;8.80;99.90;;;;;;5148518;27;20099;-76
2021/12/01 06:51:23;;;;;;;4.38;3.33;;;8.70;99.90;;;;;;5137388;27;20062;-77
2021/12/01 06:53:49;;;;;;;4.00;3.60;;;8.70;99.90;;;;;;5138353;27;20090;-75
2021/12/01 06:56:16;;;;;;;4.57;3.70;;;8.70;99.90;;;;;;5157099;27;20495;-78
2021/12/01 06:58:42;;;;;;;4.20;3.80;;;8.70;99.90;;;;;;5157207;27;20054;-77
2021/12/01 07:01:08;;;;;;;3.83;3.47;;;8.70;99.90;;;;;;5138123;27;20053;-78
2021/12/01 07:03:35;;;;;;;3.85;3.55;;;8.70;99.90;;;;;;5153726;27;20113;-77
2021/12/01 07:06:01;;;;;;;4.20;3.70;;;8.70;99.90;;;;;;5135523;27;20130;-79
2021/12/01 07:08:27;;;;;;;4.15;3.75;;;8.70;99.90;;;;;;5136291;27;20047;-80
2021/12/01 07:10:53;;;;;;;4.10;3.70;;;8.60;99.90;;;;;;5135187;27;20507;-76
2021/12/01 07:13:19;;;;;;;5.40;3.90;;;8.60;99.90;;;;;;5143036;27;20035;-76
2021/12/01 07:15:44;;;;;;;3.55;3.25;;;8.60;99.90;;;;;;5151755;27;20042;-80
2021/12/01 07:18:10;;;;;;;3.80;3.38;;;8.60;99.90;;;;;;5137641;27;20565;-78
2021/12/01 07:20:36;;;;;;;3.60;3.30;;;8.60;99.90;;;;;;5155308;27;20088;-77
2021/12/01 07:23:02;;;;;;;4.32;3.88;;;8.60;99.90;;;;;;5155346;27;20038;-78
2021/12/01 07:25:30;;;;;;;3.95;3.10;;;8.60;99.90;;;;;;5156621;27;20066;-80
2021/12/01 07:27:55;;;;;;;3.50;3.20;;;8.60;99.90;;;;;;5155974;27;20106;-77
2021/12/01 07:30:21;;;;;;;4.18;3.22;;;8.60;99.90;;;;;;5156309;27;20038;-81
2021/12/01 07:32:49;;;;;;;3.35;3.00;;;8.60;99.90;;;;;;5136654;27;20074;-79
2021/12/01 07:35:15;;;;;;;3.22;2.92;;;8.60;99.90;;;;;;5155591;27;20462;-77
2021/12/01 07:37:41;;;;;;;5.60;3.05;;;8.60;99.90;;;;;;5155468;27;20191;-76
2021/12/01 07:40:07;;;;;;;3.30;3.00;;;8.60;99.90;;;;;;5155704;27;20095;-78
2021/12/01 07:42:33;;;;;;;3.38;3.08;;;8.60;99.90;;;;;;5137987;27;20471;-78
2021/12/01 07:44:58;;;;;;;5.38;3.30;;;8.60;99.90;;;;;;5155500;27;20049;-78
2021/12/01 07:47:24;;;;;;;3.30;3.00;;;8.60;99.90;;;;;;5156392;27;20125;-77
2021/12/01 07:49:50;;;;;;;3.10;2.80;;;8.60;99.90;;;;;;5155142;27;20403;-78
2021/12/01 07:52:17;;;;;;;2.88;2.60;;;8.60;99.90;;;;;;5155481;27;20043;-77
2021/12/01 07:54:43;;;;;;;2.67;2.38;;;8.60;99.90;;;;;;5137744;27;20074;-78
2021/12/01 07:57:09;;;;;;;2.65;2.45;;;8.60;99.90;;;;;;5155345;27;20089;-79
2021/12/01 07:59:35;;;;;;;2.88;2.55;;;8.60;99.90;;;;;;5119466;27;20050;-76
2021/12/01 08:02:01;;;;;;;2.67;2.45;;;8.50;99.90;;;;;;5137225;27;20459;-76
2021/12/01 08:04:27;;;;;;;2.83;2.58;;;8.60;99.90;;;;;;5116378;27;20457;-78
2021/12/01 08:06:54;;;;;;;2.92;2.63;;;8.60;99.90;;;;;;5135391;27;20039;-77
2021/12/01 08:09:20;;;;;;;2.55;2.35;;;8.60;99.90;;;;;;5134668;27;20111;-79
2021/12/01 08:11:46;;;;;;;2.50;2.22;;;8.70;99.90;;;;;;5148204;27;20475;-77
2021/12/01 08:14:12;;;;;;;3.47;2.53;;;8.60;99.90;;;;;;5136591;27;20129;-78
2021/12/01 08:16:38;;;;;;;2.67;2.47;;;8.60;99.90;;;;;;5154485;27;20046;-78
2021/12/01 08:19:04;;;;;;;3.15;2.40;;;8.70;99.90;;;;;;5134114;27;20046;-77
2021/12/01 08:21:30;;;;;;;2.50;2.30;;;8.70;99.90;;;;;;5142249;27;20126;-77
2021/12/01 08:23:56;;;;;;;2.58;2.38;;;8.70;99.90;;;;;;5137084;27;20134;-75
2021/12/01 08:26:22;;;;;;;3.65;2.65;;;8.80;99.90;;;;;;5154925;27;20129;-78
2021/12/01 08:28:48;;;;;;;2.85;2.55;;;8.70;99.90;;;;;;5154125;27;20074;-79
2021/12/01 08:31:15;;;;;;;2.50;2.30;;;8.70;99.90;;;;;;5154640;27;20039;-77
2021/12/01 08:33:42;;;;;;;2.70;2.50;;;8.80;99.90;;;;;;5152426;27;20502;-78
2021/12/01 08:36:09;;;;;;;2.83;2.63;;;8.70;99.90;;;;;;5154547;27;20047;-77
2021/12/01 08:38:36;;;;;;;2.75;2.50;;;8.80;99.90;;;;;;5138853;27;20070;-77
2021/12/01 08:41:03;;;;;;;3.20;2.83;;;8.80;99.90;;;;;;5133500;27;20050;-77
2021/12/01 08:43:30;;;;;;;2.97;2.65;;;8.80;99.90;;;;;;5134159;27;20055;-74
2021/12/01 08:45:56;;;;;;;4.47;2.92;;;8.90;99.90;;;;;;5153218;27;20050;-77
2021/12/01 08:48:22;;;;;;;3.22;2.78;;;8.90;99.90;;;;;;5153388;27;20076;-75
2021/12/01 08:50:48;;;;;;;3.10;2.78;;;9.00;99.90;;;;;;5154858;27;20047;-76
2021/12/01 08:53:14;;;;;;;4.95;3.30;;;9.00;99.90;;;;;;5134804;27;20510;-77
2021/12/01 08:55:41;;;;;;;3.50;2.83;;;9.10;99.90;;;;;;5154838;27;20046;-77
2021/12/01 08:58:15;;;;;;;3.17;2.80;;;9.10;99.90;;;;;;5154186;27;20057;-78
2021/12/01 09:00:46;;;;;;;3.63;3.33;;;9.10;99.90;;;;;;5136457;27;20103;-76
2021/12/01 09:03:13;;;;;;;5.97;3.45;;;9.10;99.90;;;;;;5145949;27;20042;-78
2021/12/01 09:05:39;;;;;;;4.38;3.55;;;9.20;99.90;;;;;;5148582;27;20039;-75
2021/12/01 09:08:05;;;;;;;5.07;4.30;;;9.20;99.90;;;;;;5146495;27;20076;-78
2021/12/01 09:10:31;;;;;;;4.85;3.70;;;9.20;99.90;;;;;;5130935;27;20031;-77
2021/12/01 09:12:58;;;;;;;4.47;3.88;;;9.20;99.90;;;;;;5130033;27;20046;-76
2021/12/01 09:15:24;;;;;;;5.05;3.85;;;9.20;99.90;;;;;;5129797;27;20121;-76
2021/12/01 09:17:49;;;;;;;6.50;4.25;;;9.20;99.90;;;;;;5112647;27;20131;-77
2021/12/01 09:20:15;;;;;;;7.38;4.93;;;9.20;99.90;;;;;;5129884;27;20479;-77
2021/12/01 09:22:41;;;;;;;6.75;4.93;;;9.10;99.90;;;;;;5112259;27;20074;-75
2021/12/01 09:25:07;;;;;;;8.10;5.13;;;9.10;99.90;;;;;;5149342;27;20070;-75
2021/12/01 09:27:34;;;;;;;5.63;4.57;;;9.10;99.90;;;;;;5149380;27;20050;-76
2021/12/01 09:29:59;;;;;;;5.40;4.18;;;9.10;99.90;;;;;;5147262;27;20039;-74
2021/12/01 09:32:25;;;;;;;5.38;3.13;;;9.10;99.90;;;;;;5151330;27;20058;-77
2021/12/01 09:34:51;;;;;;;3.22;1.90;;;9.10;99.90;;;;;;5145390;27;20523;-77
2021/12/01 09:37:17;;;;;;;3.10;2.00;;;9.20;99.90;;;;;;5132249;27;20042;-75
2021/12/01 09:39:44;;;;;;;4.57;2.20;;;9.20;99.90;;;;;;5150707;27;20050;-76
2021/12/01 09:42:11;;;;;;;5.90;1.90;;;9.20;99.90;;;;;;5145541;27;20064;-75
2021/12/01 09:44:38;;;;;;;3.67;1.90;;;9.20;99.90;;;;;;5130606;28;20054;-76
2021/12/01 09:47:06;;;;;;;5.60;1.90;;;9.20;99.90;;;;;;5130285;28;20039;-75
2021/12/01 09:49:32;;;;;;;4.47;1.70;;;9.20;99.90;;;;;;5141989;27;20043;-76
2021/12/01 09:51:58;;;;;;;5.43;1.90;;;9.20;99.90;;;;;;5112907;28;20047;-74
2021/12/01 09:54:24;;;;;;;5.57;1.75;;;9.20;99.90;;;;;;5131735;27;20107;-76
2021/12/01 09:56:50;;;;;;;7.03;1.45;;;9.20;99.90;;;;;;5114236;27;20047;-75
2021/12/01 09:59:15;;;;;;;4.72;1.25;;;9.20;99.90;;;;;;5134353;27;20079;-75
2021/12/01 10:01:42;;;;;;;7.50;1.75;;;9.40;99.90;;;;;;5134105;27;20069;-74
2021/12/01 10:04:08;;;;;;;3.15;1.10;;;9.50;99.90;;;;;;5134055;27;20046;-74
2021/12/01 10:06:34;;;;;;;6.38;1.30;;;9.70;99.90;;;;;;5148594;27;20133;-76
2021/12/01 10:09:07;;;;;;;4.60;1.00;;;9.80;99.90;;;;;;5154973;27;20483;-73
2021/12/01 10:11:38;;;;;;;7.78;1.38;;;9.80;99.90;;;;;;5153864;27;20039;-76
2021/12/01 10:14:25;;;;;;;5.00;1.25;;;9.80;99.90;;;;;;5154902;27;20083;-73
2021/12/01 10:16:54;;;;;;;5.68;1.27;;;9.70;99.90;;;;;;5154809;27;20103;-74
2021/12/01 10:19:20;;;;;;;3.85;1.30;;;9.70;99.90;;;;;;5153691;27;20058;-75
2021/12/01 10:21:51;;;;;;;6.20;1.10;;;9.60;99.90;;;;;;5154942;27;20038;-74
2021/12/01 10:24:23;;;;;;;4.55;1.08;;;9.60;99.90;;;;;;5153806;27;20073;-75
2021/12/01 10:26:59;;;;;;;5.15;1.02;;;9.60;99.90;;;;;;5155028;27;20101;-75
2021/12/01 10:29:30;;;;;;;5.88;1.20;;;9.50;99.90;;;;;;5153882;27;20471;-76
2021/12/01 10:32:17;;;;;;;5.32;1.17;;;9.50;99.90;;;;;;5154664;27;20038;-75
2021/12/01 10:34:50;;;;;;;4.00;1.10;;;9.50;99.90;;;;;;5134051;27;20682;-75
2021/12/01 10:37:25;;;;;;;5.15;0.88;;;9.50;99.90;;;;;;5141297;27;20046;-75
2021/12/01 10:40:12;;;;;;;5.38;0.90;;;9.40;99.90;;;;;;5154023;27;20130;-76
2021/12/01 10:43:03;;;;;;;7.63;1.02;;;9.40;99.90;;;;;;5135865;27;20043;-75
2021/12/01 10:45:31;;;;;;;5.82;0.90;;;9.40;99.90;;;;;;5154023;27;20078;-74
2021/12/01 10:47:59;;;;;;;6.10;1.30;;;9.40;99.90;;;;;;5153593;27;20042;-76
2021/12/01 10:50:28;;;;;;;2.90;0.80;;;9.30;99.90;;;;;;5153323;27;20122;-77
2021/12/01 10:53:05;;;;;;;3.75;0.70;;;9.40;99.90;;;;;;5154288;27;20095;-76
2021/12/01 10:55:32;;;;;;;2.67;0.68;;;9.30;99.90;;;;;;5151717;27;20077;-77
2021/12/01 10:58:06;;;;;;;5.88;1.13;;;9.30;99.90;;;;;;5154503;27;20034;-77
2021/12/01 11:00:43;;;;;;;6.35;0.98;;;9.30;99.90;;;;;;5141228;27;20035;-77
2021/12/01 11:03:13;;;;;;;5.85;1.10;;;9.20;99.90;;;;;;5140060;27;20043;-76
2021/12/01 11:05:44;;;;;;;5.40;0.95;;;9.20;99.90;;;;;;5152125;27;20115;-77
2021/12/01 11:08:10;;;;;;;6.82;1.30;;;9.20;99.90;;;;;;5147468;27;20395;-78
2021/12/01 11:10:36;;;;;;;4.90;0.90;;;9.20;99.90;;;;;;5137379;27;20035;-77
2021/12/01 11:13:04;;;;;;;4.60;0.93;;;9.20;99.90;;;;;;5146485;27;20042;-78
2021/12/01 11:15:36;;;;;;;8.10;1.35;;;9.20;99.90;;;;;;5135840;27;20392;-76
2021/12/01 11:18:04;;;;;;;4.65;1.50;;;9.20;99.90;;;;;;5153555;27;20045;-76
2021/12/01 11:20:44;;;;;;;7.45;1.20;;;9.20;99.90;;;;;;5142433;27;20403;-77
2021/12/01 11:23:16;;;;;;;7.13;1.40;;;9.20;99.90;;;;;;5145327;27;20066;-76
2021/12/01 11:25:44;;;;;;;6.43;1.20;;;9.20;99.90;;;;;;5140663;27;20114;-77
2021/12/01 11:28:15;;;;;;;8.40;1.45;;;9.20;99.90;;;;;;5130920;27;20038;-78
2021/12/01 11:30:47;;;;;;;4.68;1.25;;;9.20;99.90;;;;;;5147432;27;20035;-77
2021/12/01 11:33:16;;;;;;;7.22;1.50;;;9.20;99.90;;;;;;5117762;27;20040;-76
2021/12/01 11:35:44;;;;;;;6.40;1.20;;;9.30;99.90;;;;;;5137980;27;20134;-77
2021/12/01 11:38:12;;;;;;;6.30;1.40;;;9.30;99.90;;;;;;5144924;27;20054;-75
2021/12/01 11:40:38;;;;;;;6.55;1.15;;;9.30;99.90;;;;;;5143691;27;20054;-79
2021/12/01 11:43:08;;;;;;;6.45;1.33;;;9.30;99.90;;;;;;5150758;27;20054;-76
2021/12/01 11:45:36;;;;;;;7.43;1.73;;;9.40;99.90;;;;;;5137844;27;20046;-77
2021/12/01 11:48:04;;;;;;;8.95;1.75;;;9.40;99.90;;;;;;5156411;27;20049;-78
2021/12/01 11:50:32;;;;;;;5.53;1.60;;;9.40;99.90;;;;;;5155851;27;20038;-79
2021/12/01 11:53:20;;;;;;;9.13;1.77;;;9.50;99.90;;;;;;5155927;27;20082;-77
2021/12/01 11:55:59;;;;;;;10.15;1.80;;;9.50;99.90;;;;;;5156367;27;20054;-77
2021/12/01 11:58:40;;;;;;;8.40;1.65;;;9.50;99.90;;;;;;5154604;27;20057;-77
2021/12/01 12:01:26;;;;;;;7.78;2.38;;;9.50;99.90;;;;;;5145550;27;20394;-78
2021/12/01 12:04:01;;;;;;;9.88;1.70;;;9.50;99.90;;;;;;5135501;27;20075;-78
2021/12/01 12:06:31;;;;;;;10.07;1.60;;;9.50;99.90;;;;;;5135190;27;20054;-77
2021/12/01 12:09:05;;;;;;;7.28;1.33;;;9.50;99.90;;;;;;5135733;27;20078;-78
2021/12/01 12:11:39;;;;;;;11.73;2.10;;;9.50;99.90;;;;;;5147421;27;20043;-79
2021/12/01 12:14:18;;;;;;;6.30;1.65;;;9.50;99.90;;;;;;5140878;27;20125;-78
2021/12/01 12:17:02;;;;;;;7.82;1.65;;;9.60;99.90;;;;;;5154566;27;20038;-77
2021/12/01 12:19:46;;;;;;;7.82;2.20;;;9.60;99.90;;;;;;5136446;27;20440;-77
2021/12/01 12:22:14;;;;;;;8.05;1.92;;;9.60;99.90;;;;;;5155464;27;20395;-78
2021/12/01 12:24:48;;;;;;;10.07;2.25;;;9.60;99.90;;;;;;5154853;27;20433;-78
2021/12/01 12:27:43;;;;;;;6.90;1.70;;;9.60;99.90;;;;;;5155414;27;20121;-81
2021/12/01 12:30:12;;;;;;;8.15;1.80;;;9.50;99.90;;;;;;5155212;27;20047;-78
2021/12/01 12:32:39;;;;;;;8.95;1.90;;;9.50;99.90;;;;;;5154496;27;20061;-79
2021/12/01 12:35:08;;;;;;;9.75;1.98;;;9.40;99.90;;;;;;5155332;27;20038;-77
2021/12/01 12:37:35;;;;;;;8.60;1.88;;;9.40;99.90;;;;;;5136095;27;20399;-78
2021/12/01 12:40:07;;;;;;;8.90;2.10;;;9.40;99.90;;;;;;5120657;27;20055;-79
2021/12/01 12:42:32;;;;;;;10.60;2.38;;;9.30;99.90;;;;;;5136381;27;20062;-79
2021/12/01 12:44:59;;;;;;;8.88;2.42;;;9.20;99.90;;;;;;5152364;27;20050;-78
2021/12/01 12:47:47;;;;;;;13.55;2.55;;;9.20;99.90;;;;;;5143654;27;20483;-76
2021/12/01 12:50:16;;;;;;;8.88;2.00;;;9.20;99.90;;;;;;5141566;27;20035;-77
2021/12/01 12:52:50;;;;;;;11.35;1.85;;;9.20;99.90;;;;;;5153314;27;20046;-79
2021/12/01 12:55:15;;;;;;;10.63;2.00;;;9.20;99.90;;;;;;5149438;27;20093;-77
2021/12/01 12:57:59;;;;;;;7.70;2.03;;;9.20;99.90;;;;;;5138378;27;20495;-78
2021/12/01 13:00:28;;;;;;;6.93;1.67;;;9.10;99.90;;;;;;5142731;27;20075;-78
2021/12/01 13:02:56;;;;;;;7.88;1.80;;;9.10;99.90;;;;;;5143167;27;20043;-79
2021/12/01 13:05:39;;;;;;;9.18;2.05;;;9.10;99.90;;;;;;5154698;27;20042;-79